sensor_id;sensor_type;location;lat;lon;timestamp;pressure;altitude;pressure_sealevel;temperature;humidity
33404;BME280;19751;40.274;18.268;2022-10-16T00:01:47;101556.94;;;15.94;100.00
33404;BME280;19751;40.274;18.268;2022-10-16T00:04:13;101559.44;;;15.96;100.00
33404;BME280;19751;40.274;18.268;2022-10-16T00:06:39;101559.25;;;15.97;100.00
33404;BME280;19751;40.274;18.268;2022-10-16T00:09:04;101570.97;;;15.98;100.00
33404;BME280;19751;40.274;18.268;2022-10-16T00:11:33;101567.19;;;15.99;100.00
33404;BME280;19751;40.274;18.268;2022-10-16T00:14:06;101566.34;;;15.98;100.00
33404;BME280;19751;40.274;18.268;2022-10-16T00:16:32;101569.47;;;15.95;100.00
33404;BME280;19751;40.274;18.268;2022-10-16T00:18:57;101554.19;;;15.87;100.00
33404;BME280;19751;40.274;18.268;2022-10-16T00:21:26;101561.06;;;15.83;100.00
33404;BME280;19751;40.274;18.268;2022-10-16T00:24:03;101567.34;;;15.77;100.00
33404;BME280;19751;40.274;18.268;2022-10-16T00:26:31;101560.81;;;15.72;100.00
33404;BME280;19751;40.274;18.268;2022-10-16T00:28:57;101563.13;;;15.68;100.00
33404;BME280;19751;40.274;18.268;2022-10-16T00:31:24;101565.19;;;15.66;100.00
33404;BME280;19751;40.274;18.268;2022-10-16T00:33:50;101568.13;;;15.64;100.00
33404;BME280;19751;40.274;18.268;2022-10-16T00:36:18;101560.75;;;15.58;100.00
33404;BME280;19751;40.274;18.268;2022-10-16T00:38:44;101557.59;;;15.55;100.00
33404;BME280;19751;40.274;18.268;2022-10-16T00:41:13;101562.63;;;15.51;100.00
33404;BME280;19751;40.274;18.268;2022-10-16T00:43:43;101564.28;;;15.52;100.00
33404;BME280;19751;40.274;18.268;2022-10-16T00:46:16;101557.38;;;15.50;100.00
33404;BME280;19751;40.274;18.268;2022-10-16T00:48:48;101557.19;;;15.51;100.00
33404;BME280;19751;40.274;18.268;2022-10-16T00:51:17;101551.53;;;15.53;100.00
33404;BME280;19751;40.274;18.268;2022-10-16T00:53:44;101548.81;;;15.53;100.00
33404;BME280;19751;40.274;18.268;2022-10-16T00:56:10;101552.16;;;15.55;100.00
33404;BME280;19751;40.274;18.268;2022-10-16T00:58:36;101553.84;;;15.56;100.00
33404;BME280;19751;40.274;18.268;2022-10-16T01:01:01;101554.69;;;15.56;100.00
33404;BME280;19751;40.274;18.268;2022-10-16T01:03:31;101559.03;;;15.51;100.00
33404;BME280;19751;40.274;18.268;2022-10-16T01:17:04;101559.78;;;15.31;100.00
33404;BME280;19751;40.274;18.268;2022-10-16T01:22:39;101557.03;;;15.25;100.00
33404;BME280;19751;40.274;18.268;2022-10-16T01:25:11;101556.59;;;15.21;100.00
33404;BME280;19751;40.274;18.268;2022-10-16T01:27:39;101559.13;;;15.23;100.00
33404;BME280;19751;40.274;18.268;2022-10-16T01:30:10;101548.28;;;15.23;100.00
33404;BME280;19751;40.274;18.268;2022-10-16T01:32:55;101544.50;;;15.24;100.00
33404;BME280;19751;40.274;18.268;2022-10-16T01:35:26;101548.44;;;15.21;100.00
33404;BME280;19751;40.274;18.268;2022-10-16T01:38:31;101544.72;;;15.22;100.00
33404;BME280;19751;40.274;18.268;2022-10-16T01:41:16;101553.47;;;15.24;100.00
33404;BME280;19751;40.274;18.268;2022-10-16T01:43:49;101549.72;;;15.25;100.00
33404;BME280;19751;40.274;18.268;2022-10-16T01:46:18;101551.41;;;15.26;100.00
33404;BME280;19751;40.274;18.268;2022-10-16T01:48:44;101551.41;;;15.26;100.00
33404;BME280;19751;40.274;18.268;2022-10-16T01:51:13;101559.34;;;15.28;100.00
33404;BME280;19751;40.274;18.268;2022-10-16T01:53:41;101559.97;;;15.30;100.00
33404;BME280;19751;40.274;18.268;2022-10-16T01:56:11;101558.97;;;15.31;100.00
33404;BME280;19751;40.274;18.268;2022-10-16T01:58:43;101560.63;;;15.32;100.00
33404;BME280;19751;40.274;18.268;2022-10-16T02:01:11;101565.00;;;15.26;100.00
33404;BME280;19751;40.274;18.268;2022-10-16T02:03:40;101563.94;;;15.27;100.00
33404;BME280;19751;40.274;18.268;2022-10-16T02:06:08;101567.88;;;15.25;100.00
33404;BME280;19751;40.274;18.268;2022-10-16T02:08:34;101569.31;;;15.21;100.00
33404;BME280;19751;40.274;18.268;2022-10-16T02:11:01;101564.72;;;15.21;100.00
33404;BME280;19751;40.274;18.268;2022-10-16T02:13:30;101563.50;;;15.24;100.00
33404;BME280;19751;40.274;18.268;2022-10-16T02:15:58;101565.81;;;15.27;100.00
33404;BME280;19751;40.274;18.268;2022-10-16T02:18:24;101565.63;;;15.28;100.00
33404;BME280;19751;40.274;18.268;2022-10-16T02:21:01;101563.13;;;15.27;100.00
33404;BME280;19751;40.274;18.268;2022-10-16T02:23:36;101562.22;;;15.20;100.00
33404;BME280;19751;40.274;18.268;2022-10-16T02:26:09;101568.84;;;15.10;100.00
33404;BME280;19751;40.274;18.268;2022-10-16T02:28:50;101557.94;;;15.04;100.00
33404;BME280;19751;40.274;18.268;2022-10-16T02:31:23;101562.75;;;15.02;100.00
33404;BME280;19751;40.274;18.268;2022-10-16T02:33:52;101569.19;;;15.01;100.00
33404;BME280;19751;40.274;18.268;2022-10-16T02:36:20;101561.03;;;14.94;100.00
33404;BME280;19751;40.274;18.268;2022-10-16T02:38:46;101563.91;;;14.92;100.00
33404;BME280;19751;40.274;18.268;2022-10-16T02:41:12;101558.75;;;14.98;100.00
33404;BME280;19751;40.274;18.268;2022-10-16T02:43:38;101557.94;;;15.04;100.00
33404;BME280;19751;40.274;18.268;2022-10-16T02:46:04;101562.38;;;15.11;100.00
33404;BME280;19751;40.274;18.268;2022-10-16T02:48:29;101556.34;;;15.16;100.00
33404;BME280;19751;40.274;18.268;2022-10-16T02:50:55;101564.72;;;15.21;100.00
33404;BME280;19751;40.274;18.268;2022-10-16T02:53:20;101561.41;;;15.19;100.00
33404;BME280;19751;40.274;18.268;2022-10-16T02:55:46;101565.16;;;15.18;100.00
33404;BME280;19751;40.274;18.268;2022-10-16T02:58:11;101558.03;;;15.17;100.00
33404;BME280;19751;40.274;18.268;2022-10-16T03:00:37;101560.50;;;15.12;100.00
33404;BME280;19751;40.274;18.268;2022-10-16T03:03:02;101563.00;;;15.07;100.00
33404;BME280;19751;40.274;18.268;2022-10-16T03:05:28;101569.59;;;14.98;100.00
33404;BME280;19751;40.274;18.268;2022-10-16T03:07:54;101564.34;;;14.89;100.00
33404;BME280;19751;40.274;18.268;2022-10-16T03:10:19;101564.94;;;14.85;100.00
33404;BME280;19751;40.274;18.268;2022-10-16T03:12:45;101562.41;;;14.83;100.00
33404;BME280;19751;40.274;18.268;2022-10-16T03:15:10;101570.53;;;14.83;100.00
33404;BME280;19751;40.274;18.268;2022-10-16T03:17:36;101575.34;;;14.81;100.00
33404;BME280;19751;40.274;18.268;2022-10-16T03:20:02;101573.22;;;14.77;100.00
33404;BME280;19751;40.274;18.268;2022-10-16T03:22:28;101574.44;;;14.74;100.00
33404;BME280;19751;40.274;18.268;2022-10-16T03:24:53;101577.53;;;14.71;100.00
33404;BME280;19751;40.274;18.268;2022-10-16T03:27:19;101575.22;;;14.68;100.00
33404;BME280;19751;40.274;18.268;2022-10-16T03:29:45;101581.03;;;14.65;100.00
33404;BME280;19751;40.274;18.268;2022-10-16T03:32:10;101577.28;;;14.66;100.00
33404;BME280;19751;40.274;18.268;2022-10-16T03:34:36;101588.59;;;14.70;100.00
33404;BME280;19751;40.274;18.268;2022-10-16T03:37:01;101585.22;;;14.67;100.00
33404;BME280;19751;40.274;18.268;2022-10-16T03:39:27;101586.09;;;14.68;100.00
33404;BME280;19751;40.274;18.268;2022-10-16T03:41:52;101583.94;;;14.63;100.00
33404;BME280;19751;40.274;18.268;2022-10-16T03:44:18;101592.84;;;14.57;100.00
33404;BME280;19751;40.274;18.268;2022-10-16T03:46:43;101590.91;;;14.51;100.00
33404;BME280;19751;40.274;18.268;2022-10-16T03:49:09;101593.34;;;14.46;100.00
33404;BME280;19751;40.274;18.268;2022-10-16T03:51:35;101593.28;;;14.39;100.00
33404;BME280;19751;40.274;18.268;2022-10-16T03:54:00;101600.75;;;14.37;100.00
33404;BME280;19751;40.274;18.268;2022-10-16T03:56:26;101605.56;;;14.35;100.00
33404;BME280;19751;40.274;18.268;2022-10-16T03:58:51;101604.06;;;14.33;100.00
33404;BME280;19751;40.274;18.268;2022-10-16T04:01:17;101604.53;;;14.36;100.00
33404;BME280;19751;40.274;18.268;2022-10-16T04:03:42;101597.00;;;14.38;100.00
33404;BME280;19751;40.274;18.268;2022-10-16T04:06:08;101602.06;;;14.41;100.00
33404;BME280;19751;40.274;18.268;2022-10-16T04:08:34;101605.97;;;14.39;100.00
33404;BME280;19751;40.274;18.268;2022-10-16T04:11:02;101595.81;;;14.41;100.00
33404;BME280;19751;40.274;18.268;2022-10-16T04:13:28;101603.09;;;14.40;100.00
33404;BME280;19751;40.274;18.268;2022-10-16T04:15:54;101602.44;;;14.38;100.00
33404;BME280;19751;40.274;18.268;2022-10-16T04:18:19;101606.84;;;14.39;100.00
33404;BME280;19751;40.274;18.268;2022-10-16T04:20:45;101603.94;;;14.41;100.00
33404;BME280;19751;40.274;18.268;2022-10-16T04:23:10;101614.13;;;14.39;100.00
33404;BME280;19751;40.274;18.268;2022-10-16T04:25:36;101611.59;;;14.37;100.00
33404;BME280;19751;40.274;18.268;2022-10-16T04:28:02;101613.28;;;14.38;100.00
33404;BME280;19751;40.274;18.268;2022-10-16T04:30:28;101617.47;;;14.41;100.00
33404;BME280;19751;40.274;18.268;2022-10-16T04:32:53;101613.84;;;14.49;100.00
33404;BME280;19751;40.274;18.268;2022-10-16T04:35:20;101611.00;;;14.57;100.00
33404;BME280;19751;40.274;18.268;2022-10-16T04:37:46;101608.16;;;14.65;100.00
33404;BME280;19751;40.274;18.268;2022-10-16T04:40:12;101603.44;;;14.74;100.00
33404;BME280;19751;40.274;18.268;2022-10-16T04:42:37;101605.34;;;14.80;100.00
33404;BME280;19751;40.274;18.268;2022-10-16T04:45:05;101610.00;;;14.86;100.00
33404;BME280;19751;40.274;18.268;2022-10-16T04:47:30;101620.03;;;14.92;100.00
33404;BME280;19751;40.274;18.268;2022-10-16T04:49:56;101614.25;;;14.95;100.00
33404;BME280;19751;40.274;18.268;2022-10-16T04:52:22;101616.94;;;14.95;100.00
33404;BME280;19751;40.274;18.268;2022-10-16T04:54:50;101617.16;;;14.94;100.00
33404;BME280;19751;40.274;18.268;2022-10-16T04:57:16;101617.53;;;14.90;100.00
33404;BME280;19751;40.274;18.268;2022-10-16T04:59:41;101614.97;;;14.82;100.00
33404;BME280;19751;40.274;18.268;2022-10-16T05:02:07;101616.00;;;14.81;100.00
33404;BME280;19751;40.274;18.268;2022-10-16T05:04:32;101613.47;;;14.80;100.00
33404;BME280;19751;40.274;18.268;2022-10-16T05:06:58;101616.41;;;14.78;100.00
33404;BME280;19751;40.274;18.268;2022-10-16T05:09:23;101616.78;;;14.75;100.00
33404;BME280;19751;40.274;18.268;2022-10-16T05:11:49;101625.97;;;14.74;100.00
33404;BME280;19751;40.274;18.268;2022-10-16T05:14:14;101635.13;;;14.73;100.00
33404;BME280;19751;40.274;18.268;2022-10-16T05:16:40;101632.44;;;14.73;100.00
33404;BME280;19751;40.274;18.268;2022-10-16T05:19:06;101636.81;;;14.74;100.00
33404;BME280;19751;40.274;18.268;2022-10-16T05:21:31;101629.72;;;14.73;100.00
33404;BME280;19751;40.274;18.268;2022-10-16T05:23:57;101636.59;;;14.76;100.00
33404;BME280;19751;40.274;18.268;2022-10-16T05:26:22;101641.66;;;14.79;100.00
33404;BME280;19751;40.274;18.268;2022-10-16T05:28:49;101645.00;;;14.81;100.00
33404;BME280;19751;40.274;18.268;2022-10-16T05:31:15;101650.03;;;14.84;100.00
33404;BME280;19751;40.274;18.268;2022-10-16T05:33:41;101650.84;;;14.84;100.00
33404;BME280;19751;40.274;18.268;2022-10-16T05:36:08;101649.84;;;14.85;100.00
33404;BME280;19751;40.274;18.268;2022-10-16T05:38:37;101647.38;;;14.90;100.00
33404;BME280;19751;40.274;18.268;2022-10-16T05:41:04;101655.53;;;14.90;100.00
33404;BME280;19751;40.274;18.268;2022-10-16T05:43:30;101648.59;;;14.88;100.00
33404;BME280;19751;40.274;18.268;2022-10-16T05:46:01;101652.16;;;14.88;100.00
33404;BME280;19751;40.274;18.268;2022-10-16T05:48:27;101644.28;;;14.94;100.00
33404;BME280;19751;40.274;18.268;2022-10-16T05:51:00;101654.34;;;15.00;100.00
33404;BME280;19751;40.274;18.268;2022-10-16T05:53:28;101657.13;;;15.06;100.00
33404;BME280;19751;40.274;18.268;2022-10-16T05:55:56;101660.69;;;15.13;100.00
33404;BME280;19751;40.274;18.268;2022-10-16T05:58:22;101655.78;;;15.24;100.00
33404;BME280;19751;40.274;18.268;2022-10-16T06:00:55;101652.91;;;15.32;100.00
33404;BME280;19751;40.274;18.268;2022-10-16T06:03:21;101655.88;;;15.37;100.00
33404;BME280;19751;40.274;18.268;2022-10-16T06:05:47;101657.97;;;15.41;100.00
33404;BME280;19751;40.274;18.268;2022-10-16T06:08:12;101660.69;;;15.41;100.00
33404;BME280;19751;40.274;18.268;2022-10-16T06:10:38;101674.28;;;15.41;100.00
33404;BME280;19751;40.274;18.268;2022-10-16T06:13:03;101679.69;;;15.41;100.00
33404;BME280;19751;40.274;18.268;2022-10-16T06:15:29;101673.81;;;15.38;100.00
33404;BME280;19751;40.274;18.268;2022-10-16T06:17:54;101683.84;;;15.37;100.00
33404;BME280;19751;40.274;18.268;2022-10-16T06:20:20;101674.66;;;15.38;100.00
33404;BME280;19751;40.274;18.268;2022-10-16T06:22:45;101681.78;;;15.39;100.00
33404;BME280;19751;40.274;18.268;2022-10-16T06:25:11;101687.66;;;15.43;100.00
33404;BME280;19751;40.274;18.268;2022-10-16T06:27:39;101699.16;;;15.45;100.00
33404;BME280;19751;40.274;18.268;2022-10-16T06:30:06;101701.03;;;15.45;100.00
33404;BME280;19751;40.274;18.268;2022-10-16T06:32:31;101709.78;;;15.47;100.00
33404;BME280;19751;40.274;18.268;2022-10-16T06:34:57;101716.94;;;15.48;100.00
33404;BME280;19751;40.274;18.268;2022-10-16T06:37:22;101712.78;;;15.52;100.00
33404;BME280;19751;40.274;18.268;2022-10-16T06:39:48;101705.72;;;15.57;100.00
33404;BME280;19751;40.274;18.268;2022-10-16T06:42:13;101715.13;;;15.61;100.00
33404;BME280;19751;40.274;18.268;2022-10-16T06:44:39;101713.72;;;15.65;100.00
33404;BME280;19751;40.274;18.268;2022-10-16T06:47:04;101715.44;;;15.73;100.00
33404;BME280;19751;40.274;18.268;2022-10-16T06:49:30;101723.44;;;15.81;100.00
33404;BME280;19751;40.274;18.268;2022-10-16T06:51:55;101722.22;;;15.90;100.00
33404;BME280;19751;40.274;18.268;2022-10-16T06:54:20;101720.19;;;15.99;100.00
33404;BME280;19751;40.274;18.268;2022-10-16T06:56:46;101725.25;;;16.09;100.00
33404;BME280;19751;40.274;18.268;2022-10-16T06:59:11;101725.94;;;16.18;100.00
33404;BME280;19751;40.274;18.268;2022-10-16T07:01:37;101725.53;;;16.27;100.00
33404;BME280;19751;40.274;18.268;2022-10-16T07:04:02;101729.13;;;16.34;100.00
33404;BME280;19751;40.274;18.268;2022-10-16T07:06:31;101728.09;;;16.42;100.00
33404;BME280;19751;40.274;18.268;2022-10-16T07:08:57;101732.72;;;16.48;100.00
33404;BME280;19751;40.274;18.268;2022-10-16T07:11:23;101733.38;;;16.57;100.00
33404;BME280;19751;40.274;18.268;2022-10-16T07:13:50;101743.47;;;16.63;100.00
33404;BME280;19751;40.274;18.268;2022-10-16T07:16:20;101751.41;;;16.71;100.00
33404;BME280;19751;40.274;18.268;2022-10-16T07:18:47;101740.59;;;16.78;100.00
33404;BME280;19751;40.274;18.268;2022-10-16T07:21:17;101748.78;;;16.84;100.00
33404;BME280;19751;40.274;18.268;2022-10-16T07:23:43;101753.81;;;16.94;100.00
33404;BME280;19751;40.274;18.268;2022-10-16T07:26:09;101752.78;;;17.02;100.00
33404;BME280;19751;40.274;18.268;2022-10-16T07:28:36;101758.84;;;17.10;100.00
33404;BME280;19751;40.274;18.268;2022-10-16T07:31:03;101754.88;;;17.20;100.00
33404;BME280;19751;40.274;18.268;2022-10-16T07:33:29;101758.88;;;17.30;100.00
33404;BME280;19751;40.274;18.268;2022-10-16T07:35:55;101754.22;;;17.37;100.00
33404;BME280;19751;40.274;18.268;2022-10-16T07:38:22;101759.47;;;17.46;100.00
33404;BME280;19751;40.274;18.268;2022-10-16T07:40:47;101763.69;;;17.55;100.00
33404;BME280;19751;40.274;18.268;2022-10-16T07:43:13;101759.03;;;17.62;100.00
33404;BME280;19751;40.274;18.268;2022-10-16T07:45:47;101762.00;;;17.67;100.00
33404;BME280;19751;40.274;18.268;2022-10-16T07:48:14;101764.09;;;17.72;100.00
33404;BME280;19751;40.274;18.268;2022-10-16T07:50:40;101756.53;;;17.80;100.00
33404;BME280;19751;40.274;18.268;2022-10-16T07:53:06;101754.00;;;17.85;100.00
33404;BME280;19751;40.274;18.268;2022-10-16T07:55:31;101757.34;;;17.94;100.00
33404;BME280;19751;40.274;18.268;2022-10-16T07:57:57;101763.41;;;18.03;100.00
33404;BME280;19751;40.274;18.268;2022-10-16T08:00:24;101762.56;;;18.09;100.00
33404;BME280;19751;40.274;18.268;2022-10-16T08:02:49;101758.13;;;18.14;100.00
33404;BME280;19751;40.274;18.268;2022-10-16T08:05:15;101759.16;;;18.20;100.00
33404;BME280;19751;40.274;18.268;2022-10-16T08:07:40;101759.34;;;18.25;100.00
33404;BME280;19751;40.274;18.268;2022-10-16T08:10:06;101763.94;;;18.31;100.00
33404;BME280;19751;40.274;18.268;2022-10-16T08:12:32;101763.50;;;18.34;100.00
33404;BME280;19751;40.274;18.268;2022-10-16T08:14:57;101771.47;;;18.43;100.00
33404;BME280;19751;40.274;18.268;2022-10-16T08:17:23;101766.19;;;18.48;100.00
33404;BME280;19751;40.274;18.268;2022-10-16T08:19:48;101775.38;;;18.53;100.00
33404;BME280;19751;40.274;18.268;2022-10-16T08:22:14;101771.22;;;18.51;100.00
33404;BME280;19751;40.274;18.268;2022-10-16T08:27:40;101774.78;;;18.51;100.00
33404;BME280;19751;40.274;18.268;2022-10-16T08:30:06;101769.75;;;18.48;100.00
33404;BME280;19751;40.274;18.268;2022-10-16T08:32:32;101767.25;;;18.47;100.00
33404;BME280;19751;40.274;18.268;2022-10-16T08:34:57;101773.72;;;18.52;100.00
33404;BME280;19751;40.274;18.268;2022-10-16T08:37:23;101776.41;;;18.59;100.00
33404;BME280;19751;40.274;18.268;2022-10-16T08:39:50;101779.94;;;18.66;100.00
33404;BME280;19751;40.274;18.268;2022-10-16T08:45:13;101781.75;;;18.85;100.00
33404;BME280;19751;40.274;18.268;2022-10-16T08:50:26;101782.97;;;18.96;100.00
33404;BME280;19751;40.274;18.268;2022-10-16T08:52:54;101782.13;;;18.96;100.00
33404;BME280;19751;40.274;18.268;2022-10-16T08:55:43;101774.97;;;18.95;100.00
33404;BME280;19751;40.274;18.268;2022-10-16T08:58:19;101786.09;;;19.00;100.00
33404;BME280;19751;40.274;18.268;2022-10-16T09:00:55;101783.72;;;19.03;100.00
33404;BME280;19751;40.274;18.268;2022-10-16T09:14:44;101795.59;;;19.22;100.00
33404;BME280;19751;40.274;18.268;2022-10-16T09:22:35;101807.56;;;19.21;100.00
33404;BME280;19751;40.274;18.268;2022-10-16T09:25:11;101797.25;;;19.23;100.00
33404;BME280;19751;40.274;18.268;2022-10-16T09:27:37;101801.84;;;19.29;100.00
33404;BME280;19751;40.274;18.268;2022-10-16T09:30:14;101812.09;;;19.34;100.00
33404;BME280;19751;40.274;18.268;2022-10-16T09:32:41;101802.84;;;19.35;100.00
33404;BME280;19751;40.274;18.268;2022-10-16T09:35:14;101809.13;;;19.35;100.00
33404;BME280;19751;40.274;18.268;2022-10-16T09:37:43;101803.00;;;19.40;100.00
33404;BME280;19751;40.274;18.268;2022-10-16T09:40:32;101813.25;;;19.45;100.00
33404;BME280;19751;40.274;18.268;2022-10-16T09:48:49;101819.09;;;19.55;99.45
33404;BME280;19751;40.274;18.268;2022-10-16T09:51:27;101826.81;;;19.65;100.00
33404;BME280;19751;40.274;18.268;2022-10-16T09:53:59;101821.97;;;19.67;99.76
33404;BME280;19751;40.274;18.268;2022-10-16T09:56:33;101830.38;;;19.65;99.34
33404;BME280;19751;40.274;18.268;2022-10-16T09:59:08;101829.16;;;19.61;99.33
33404;BME280;19751;40.274;18.268;2022-10-16T10:01:40;101842.81;;;19.61;98.81
33404;BME280;19751;40.274;18.268;2022-10-16T10:04:06;101826.22;;;19.63;99.23
33404;BME280;19751;40.274;18.268;2022-10-16T10:06:40;101822.41;;;19.64;98.64
33404;BME280;19751;40.274;18.268;2022-10-16T10:12:00;101824.03;;;19.71;98.04
33404;BME280;19751;40.274;18.268;2022-10-16T10:14:44;101816.81;;;19.77;97.76
33404;BME280;19751;40.274;18.268;2022-10-16T10:19:51;101817.34;;;19.67;99.00
33404;BME280;19751;40.274;18.268;2022-10-16T10:22:44;101812.31;;;19.64;99.18
33404;BME280;19751;40.274;18.268;2022-10-16T10:30:20;101812.25;;;19.71;99.00
33404;BME280;19751;40.274;18.268;2022-10-16T10:35:24;101807.19;;;19.74;97.45
33404;BME280;19751;40.274;18.268;2022-10-16T10:38:06;101810.50;;;19.76;96.95
33404;BME280;19751;40.274;18.268;2022-10-16T10:41:04;101799.34;;;19.78;95.55
33404;BME280;19751;40.274;18.268;2022-10-16T10:43:40;101791.16;;;19.78;96.35
33404;BME280;19751;40.274;18.268;2022-10-16T10:46:20;101801.03;;;19.79;96.16
33404;BME280;19751;40.274;18.268;2022-10-16T10:57:39;101791.47;;;19.88;95.20
33404;BME280;19751;40.274;18.268;2022-10-16T11:08:31;101776.69;;;19.96;96.08
33404;BME280;19751;40.274;18.268;2022-10-16T11:11:02;101778.59;;;19.95;96.28
33404;BME280;19751;40.274;18.268;2022-10-16T11:13:43;101778.34;;;19.97;96.03
33404;BME280;19751;40.274;18.268;2022-10-16T11:16:31;101778.34;;;19.97;96.53
33404;BME280;19751;40.274;18.268;2022-10-16T11:21:50;101785.47;;;19.98;95.60
33404;BME280;19751;40.274;18.268;2022-10-16T11:24:23;101766.97;;;20.00;95.32
33404;BME280;19751;40.274;18.268;2022-10-16T11:26:53;101780.84;;;19.98;94.66
33404;BME280;19751;40.274;18.268;2022-10-16T11:29:26;101784.41;;;19.99;94.63
33404;BME280;19751;40.274;18.268;2022-10-16T11:32:05;101774.53;;;19.98;93.81
33404;BME280;19751;40.274;18.268;2022-10-16T11:34:38;101778.75;;;20.00;93.96
33404;BME280;19751;40.274;18.268;2022-10-16T11:37:14;101770.75;;;19.99;93.88
33404;BME280;19751;40.274;18.268;2022-10-16T11:39:43;101769.06;;;19.98;93.84
33404;BME280;19751;40.274;18.268;2022-10-16T11:42:25;101755.19;;;19.99;94.24
33404;BME280;19751;40.274;18.268;2022-10-16T11:53:56;101760.19;;;20.02;96.35
33404;BME280;19751;40.274;18.268;2022-10-16T11:56:24;101760.66;;;19.99;95.39
33404;BME280;19751;40.274;18.268;2022-10-16T11:58:57;101758.75;;;20.00;95.47
33404;BME280;19751;40.274;18.268;2022-10-16T12:01:38;101764.22;;;20.00;95.31
33404;BME280;19751;40.274;18.268;2022-10-16T12:04:30;101758.75;;;20.00;94.39
33404;BME280;19751;40.274;18.268;2022-10-16T12:07:10;101765.28;;;19.99;93.53
33404;BME280;19751;40.274;18.268;2022-10-16T12:09:39;101759.59;;;20.00;93.64
33404;BME280;19751;40.274;18.268;2022-10-16T12:12:27;101755.53;;;20.03;94.96
33404;BME280;19751;40.274;18.268;2022-10-16T12:15:19;101754.50;;;20.04;95.01
33404;BME280;19751;40.274;18.268;2022-10-16T12:17:45;101753.00;;;20.08;95.38
33404;BME280;19751;40.274;18.268;2022-10-16T12:22:36;101755.25;;;20.11;95.72
33404;BME280;19751;40.274;18.268;2022-10-16T12:27:55;101752.50;;;20.11;94.18
33404;BME280;19751;40.274;18.268;2022-10-16T12:30:23;101747.03;;;20.11;93.94
33404;BME280;19751;40.274;18.268;2022-10-16T12:32:59;101750.16;;;20.15;94.43
33404;BME280;19751;40.274;18.268;2022-10-16T12:35:28;101751.47;;;20.12;93.69
33404;BME280;19751;40.274;18.268;2022-10-16T12:38:08;101750.84;;;20.10;93.49
33404;BME280;19751;40.274;18.268;2022-10-16T12:40:39;101749.78;;;20.11;93.71
33404;BME280;19751;40.274;18.268;2022-10-16T12:45:46;101758.38;;;20.15;93.46
33404;BME280;19751;40.274;18.268;2022-10-16T12:48:20;101753.97;;;20.14;93.22
33404;BME280;19751;40.274;18.268;2022-10-16T12:50:46;101746.38;;;20.16;93.37
33404;BME280;19751;40.274;18.268;2022-10-16T12:53:21;101737.94;;;20.17;93.52
33404;BME280;19751;40.274;18.268;2022-10-16T12:56:12;101740.69;;;20.17;93.18
33404;BME280;19751;40.274;18.268;2022-10-16T13:12:04;101734.47;;;20.40;91.18
33404;BME280;19751;40.274;18.268;2022-10-16T13:15:01;101736.94;;;20.48;90.55
33404;BME280;19751;40.274;18.268;2022-10-16T13:17:50;101745.06;;;20.55;89.57
33404;BME280;19751;40.274;18.268;2022-10-16T13:28:48;101755.16;;;20.84;87.21
33404;BME280;19751;40.274;18.268;2022-10-16T13:31:20;101751.03;;;20.94;86.48
33404;BME280;19751;40.274;18.268;2022-10-16T13:33:50;101755.44;;;20.95;85.02
33404;BME280;19751;40.274;18.268;2022-10-16T13:36:24;101753.91;;;20.99;85.36
33404;BME280;19751;40.274;18.268;2022-10-16T13:41:38;101742.38;;;21.08;82.49
33404;BME280;19751;40.274;18.268;2022-10-16T13:44:04;101748.34;;;21.17;82.03
33404;BME280;19751;40.274;18.268;2022-10-16T13:46:30;101750.84;;;21.19;81.58
33404;BME280;19751;40.274;18.268;2022-10-16T13:49:05;101747.16;;;21.25;82.02
33404;BME280;19751;40.274;18.268;2022-10-16T13:51:32;101749.34;;;21.34;81.65
33404;BME280;19751;40.274;18.268;2022-10-16T13:53:58;101743.31;;;21.44;80.63
33404;BME280;19751;40.274;18.268;2022-10-16T13:56:29;101753.66;;;21.54;80.23
33404;BME280;19751;40.274;18.268;2022-10-16T13:59:02;101752.47;;;21.62;80.34
33404;BME280;19751;40.274;18.268;2022-10-16T14:01:34;101738.41;;;21.70;80.34
33404;BME280;19751;40.274;18.268;2022-10-16T14:04:08;101747.00;;;21.73;80.56
33404;BME280;19751;40.274;18.268;2022-10-16T14:06:35;101749.84;;;21.78;80.92
33404;BME280;19751;40.274;18.268;2022-10-16T14:09:08;101754.47;;;21.90;81.00
33404;BME280;19751;40.274;18.268;2022-10-16T14:11:45;101756.16;;;22.02;81.21
33404;BME280;19751;40.274;18.268;2022-10-16T14:14:12;101755.78;;;22.11;81.16
33404;BME280;19751;40.274;18.268;2022-10-16T14:16:40;101751.34;;;22.21;79.35
33404;BME280;19751;40.274;18.268;2022-10-16T14:19:18;101750.25;;;22.22;78.05
33404;BME280;19751;40.274;18.268;2022-10-16T14:21:44;101748.13;;;22.24;76.35
33404;BME280;19751;40.274;18.268;2022-10-16T14:24:12;101750.38;;;22.27;77.40
33404;BME280;19751;40.274;18.268;2022-10-16T14:26:43;101751.56;;;22.31;77.48
33404;BME280;19751;40.274;18.268;2022-10-16T14:29:14;101753.06;;;22.39;76.97
33404;BME280;19751;40.274;18.268;2022-10-16T14:31:41;101748.28;;;22.46;77.07
33404;BME280;19751;40.274;18.268;2022-10-16T14:36:53;101761.84;;;22.65;78.15
33404;BME280;19751;40.274;18.268;2022-10-16T14:39:23;101758.34;;;22.69;78.22
33404;BME280;19751;40.274;18.268;2022-10-16T14:41:55;101766.78;;;22.79;77.90
33404;BME280;19751;40.274;18.268;2022-10-16T14:44:29;101767.66;;;22.97;76.31
33404;BME280;19751;40.274;18.268;2022-10-16T14:46:56;101769.78;;;23.23;74.23